Time;durP1;ratioP1;P1;durP2;ratioP2;P2;SDS_P1;SDS_P2;PMS_P1;PMS_P2;Temp;Humidity;BMP_temperature;BMP_pressure;BME280_temperature;BME280_humidity;BME280_pressure;Samples;Min_cycle;Max_cycle;Signal;HPM_P1;HPM_P2
2020/12/15 00:01:12;;;;;;;4.80;1.80;;;8.90;85.70;;;;;;5096175;28;20032;-80
2020/12/15 00:03:37;;;;;;;2.63;1.40;;;8.90;85.90;;;;;;5092995;28;20507;-80
2020/12/15 00:06:03;;;;;;;4.87;2.00;;;8.90;86.00;;;;;;5120190;28;20043;-80
2020/12/15 00:08:29;;;;;;;2.90;1.70;;;8.90;86.00;;;;;;5096150;28;20196;-80
2020/12/15 00:10:54;;;;;;;2.77;1.30;;;8.90;86.10;;;;;;5079254;28;20463;-79
2020/12/15 00:13:20;;;;;;;5.77;1.63;;;8.90;86.10;;;;;;5113015;28;20035;-80
2020/12/15 00:15:46;;;;;;;2.93;1.60;;;8.90;86.20;;;;;;5113365;28;20030;-81
2020/12/15 00:18:11;;;;;;;4.90;1.93;;;8.90;86.30;;;;;;5130716;28;20039;-80
2020/12/15 00:20:40;;;;;;;3.27;1.77;;;8.90;86.20;;;;;;5079889;28;20733;-80
2020/12/15 00:23:07;;;;;;;4.03;1.47;;;8.90;86.30;;;;;;5092749;28;20432;-79
2020/12/15 00:25:33;;;;;;;3.67;1.30;;;8.90;86.30;;;;;;5100390;27;20023;-80
2020/12/15 00:27:58;;;;;;;3.90;1.37;;;8.90;86.40;;;;;;5096291;28;20081;-79
2020/12/15 00:30:25;;;;;;;3.27;1.30;;;8.90;86.60;;;;;;5097990;28;20020;-80
2020/12/15 00:32:51;;;;;;;3.90;1.70;;;8.90;86.50;;;;;;5123261;27;20047;-80
2020/12/15 00:35:18;;;;;;;4.57;1.63;;;8.90;86.60;;;;;;5139208;27;20016;-80
2020/12/15 00:37:43;;;;;;;4.70;1.60;;;8.90;86.70;;;;;;5139030;27;20493;-79
2020/12/15 00:40:09;;;;;;;4.37;1.63;;;8.90;86.70;;;;;;5118686;28;20027;-80
2020/12/15 00:42:35;;;;;;;3.57;1.63;;;8.90;86.90;;;;;;5114257;27;20050;-79
2020/12/15 00:45:00;;;;;;;3.60;1.60;;;8.90;86.90;;;;;;5121656;27;20027;-79
2020/12/15 00:47:26;;;;;;;3.57;2.03;;;8.80;87.10;;;;;;5142174;27;20102;-80
2020/12/15 00:49:52;;;;;;;2.30;1.30;;;8.80;87.40;;;;;;5130956;27;20035;-79
2020/12/15 00:52:17;;;;;;;2.17;1.17;;;8.80;87.60;;;;;;5118360;27;20042;-79
2020/12/15 00:54:43;;;;;;;3.87;1.90;;;8.70;87.70;;;;;;5118392;27;20062;-79
2020/12/15 00:57:09;;;;;;;6.80;1.73;;;8.70;88.00;;;;;;5100713;27;20027;-81
2020/12/15 00:59:34;;;;;;;3.60;1.83;;;8.70;88.20;;;;;;5098054;28;20036;-80
2020/12/15 01:02:01;;;;;;;3.30;1.50;;;8.70;88.40;;;;;;5110144;27;20485;-80
2020/12/15 01:04:27;;;;;;;5.03;1.43;;;8.60;88.40;;;;;;5116166;27;20042;-80
2020/12/15 01:06:52;;;;;;;4.90;2.00;;;8.60;88.50;;;;;;5134974;27;20051;-80
2020/12/15 01:09:18;;;;;;;7.20;1.70;;;8.60;88.60;;;;;;5090022;28;20403;-80
2020/12/15 01:11:44;;;;;;;4.57;2.10;;;8.60;88.90;;;;;;5079237;28;20055;-80
2020/12/15 01:14:09;;;;;;;4.43;1.60;;;8.60;89.00;;;;;;5095510;28;20032;-79
2020/12/15 01:16:35;;;;;;;3.80;2.50;;;8.60;89.20;;;;;;5100815;27;20391;-80
2020/12/15 01:19:00;;;;;;;4.93;2.10;;;8.60;89.40;;;;;;5099584;27;20438;-80
2020/12/15 01:21:28;;;;;;;3.63;1.87;;;8.60;89.50;;;;;;5116164;27;20055;-80
2020/12/15 01:23:53;;;;;;;5.87;2.37;;;8.60;89.60;;;;;;5099669;27;20454;-79
2020/12/15 01:26:20;;;;;;;4.83;1.60;;;8.60;89.70;;;;;;5134501;27;20066;-80
2020/12/15 01:28:45;;;;;;;7.17;2.40;;;8.50;89.80;;;;;;5116512;27;20027;-80
2020/12/15 01:31:11;;;;;;;4.43;2.10;;;8.50;90.00;;;;;;5083065;28;20040;-80
2020/12/15 01:33:37;;;;;;;4.57;2.17;;;8.50;90.00;;;;;;5128860;27;20524;-79
2020/12/15 01:36:03;;;;;;;6.00;2.80;;;8.50;90.10;;;;;;5115340;28;20364;-80
2020/12/15 01:38:28;;;;;;;4.97;2.80;;;8.50;90.10;;;;;;5095170;28;20254;-80
2020/12/15 01:40:54;;;;;;;4.37;2.27;;;8.50;90.20;;;;;;5099047;27;20038;-79
2020/12/15 01:43:20;;;;;;;3.53;2.30;;;8.50;90.30;;;;;;5115853;27;20390;-80
2020/12/15 01:45:45;;;;;;;4.17;2.57;;;8.50;90.30;;;;;;5115836;27;20031;-80
2020/12/15 01:48:11;;;;;;;6.30;2.53;;;8.40;90.50;;;;;;5098113;27;20031;-78
2020/12/15 01:50:38;;;;;;;5.23;2.50;;;8.50;90.40;;;;;;5115649;27;20055;-80
2020/12/15 01:53:09;;;;;;;3.37;2.20;;;8.50;90.50;;;;;;5116042;27;20083;-80
2020/12/15 01:55:37;;;;;;;4.80;3.00;;;8.50;90.50;;;;;;5115080;27;20023;-79
2020/12/15 01:58:03;;;;;;;4.77;3.10;;;8.50;90.50;;;;;;5132905;27;20047;-80
2020/12/15 02:00:29;;;;;;;7.13;3.63;;;8.40;90.60;;;;;;5133767;27;20064;-79
2020/12/15 02:02:55;;;;;;;3.43;2.63;;;8.50;90.60;;;;;;5115327;27;20031;-80
2020/12/15 02:05:20;;;;;;;5.60;3.00;;;8.50;90.60;;;;;;5114027;27;20055;-80
2020/12/15 02:07:47;;;;;;;7.23;3.90;;;8.50;90.60;;;;;;5098655;27;20062;-80
2020/12/15 02:10:13;;;;;;;6.40;3.27;;;8.40;90.60;;;;;;5115050;27;20019;-80
2020/12/15 02:12:40;;;;;;;5.93;3.10;;;8.40;90.70;;;;;;5134247;27;20422;-80
2020/12/15 02:15:06;;;;;;;5.13;3.23;;;8.40;90.70;;;;;;5115709;27;20038;-79
2020/12/15 02:17:31;;;;;;;8.23;3.40;;;8.40;90.80;;;;;;5133313;27;20027;-79
2020/12/15 02:20:15;;;;;;;5.20;3.10;;;8.40;90.80;;;;;;5115172;27;20088;-79
2020/12/15 02:22:41;;;;;;;4.07;3.20;;;8.40;90.80;;;;;;5115725;27;20043;-79
2020/12/15 02:25:08;;;;;;;6.00;3.23;;;8.40;90.80;;;;;;5133050;27;20440;-79
2020/12/15 02:27:34;;;;;;;7.27;3.40;;;8.40;90.80;;;;;;5114037;27;20041;-80
2020/12/15 02:30:00;;;;;;;4.93;3.30;;;8.50;90.90;;;;;;5132586;27;20549;-80
2020/12/15 02:32:26;;;;;;;5.10;3.23;;;8.50;90.80;;;;;;5113484;27;20137;-80
2020/12/15 02:34:56;;;;;;;4.63;3.20;;;8.50;90.80;;;;;;5113993;27;20393;-79
2020/12/15 02:37:22;;;;;;;6.70;3.20;;;8.50;90.80;;;;;;5114016;27;20561;-79
2020/12/15 02:39:48;;;;;;;4.47;3.07;;;8.50;90.80;;;;;;5114979;27;20506;-80
2020/12/15 02:42:13;;;;;;;5.33;3.70;;;8.40;90.80;;;;;;5113609;27;20031;-80
2020/12/15 02:44:39;;;;;;;5.63;3.40;;;8.40;90.80;;;;;;5094122;28;20114;-80
2020/12/15 02:47:05;;;;;;;6.30;3.23;;;8.40;90.80;;;;;;5094860;28;20042;-79
2020/12/15 02:49:30;;;;;;;6.57;3.60;;;8.40;90.80;;;;;;5096946;27;20060;-80
2020/12/15 02:51:56;;;;;;;7.10;3.90;;;8.40;90.80;;;;;;5114182;27;20106;-80
2020/12/15 02:54:22;;;;;;;5.70;3.40;;;8.40;90.90;;;;;;5132630;27;20027;-79
2020/12/15 02:56:48;;;;;;;5.03;3.60;;;8.40;90.90;;;;;;5114358;27;20027;-80
2020/12/15 02:59:13;;;;;;;5.30;3.73;;;8.40;90.80;;;;;;5114046;27;20027;-80
2020/12/15 03:01:43;;;;;;;6.40;3.90;;;8.40;90.80;;;;;;5093667;28;20030;-80
2020/12/15 03:04:10;;;;;;;6.93;4.17;;;8.40;90.80;;;;;;5099851;28;20036;-81
2020/12/15 03:06:36;;;;;;;4.77;3.73;;;8.40;90.80;;;;;;5123953;27;20039;-80
2020/12/15 03:09:06;;;;;;;7.47;4.40;;;8.40;90.80;;;;;;5097619;27;20128;-80
2020/12/15 03:11:32;;;;;;;4.10;3.33;;;8.40;90.80;;;;;;5109354;27;20019;-81
2020/12/15 03:13:57;;;;;;;6.33;4.00;;;8.30;90.70;;;;;;5113935;28;20139;-80
2020/12/15 03:16:23;;;;;;;4.53;3.20;;;8.40;90.70;;;;;;5113450;27;20085;-80
2020/12/15 03:18:49;;;;;;;4.97;3.50;;;8.40;90.80;;;;;;5114269;27;20450;-81
2020/12/15 03:21:17;;;;;;;6.10;4.03;;;8.40;90.70;;;;;;5114040;28;20031;-81
2020/12/15 03:23:43;;;;;;;5.00;3.03;;;8.40;90.70;;;;;;5113864;28;20054;-82
2020/12/15 03:26:09;;;;;;;5.83;3.77;;;8.40;90.70;;;;;;5096762;28;20059;-81
2020/12/15 03:28:35;;;;;;;4.57;3.50;;;8.40;90.60;;;;;;5113481;28;20222;-81
2020/12/15 03:31:00;;;;;;;5.43;3.63;;;8.40;90.60;;;;;;5114122;28;20463;-81
2020/12/15 03:33:26;;;;;;;5.10;3.20;;;8.50;90.60;;;;;;5113043;28;20476;-81
2020/12/15 03:35:52;;;;;;;5.03;3.60;;;8.50;90.60;;;;;;5113916;28;20043;-80
2020/12/15 03:38:17;;;;;;;4.70;4.03;;;8.50;90.50;;;;;;5103522;28;20035;-80
2020/12/15 03:40:43;;;;;;;8.10;3.63;;;8.50;90.50;;;;;;5066824;28;20035;-81
2020/12/15 03:43:08;;;;;;;5.23;3.70;;;8.50;90.40;;;;;;5096603;28;20030;-81
2020/12/15 03:45:34;;;;;;;6.93;3.70;;;8.50;90.40;;;;;;5112741;28;20099;-81
2020/12/15 03:48:00;;;;;;;4.80;3.70;;;8.50;90.40;;;;;;5113597;28;20466;-81
2020/12/15 03:50:25;;;;;;;5.87;3.20;;;8.50;90.30;;;;;;5113268;28;21390;-81
2020/12/15 03:52:51;;;;;;;4.90;3.40;;;8.50;90.30;;;;;;5104371;28;20479;-81
2020/12/15 03:55:22;;;;;;;6.87;3.80;;;8.50;90.30;;;;;;5106461;28;20095;-80
2020/12/15 03:57:49;;;;;;;5.57;3.80;;;8.50;90.30;;;;;;5083558;28;20118;-81
2020/12/15 04:00:15;;;;;;;3.97;3.57;;;8.50;90.30;;;;;;5109676;28;20081;-81
2020/12/15 04:02:41;;;;;;;4.83;3.70;;;8.50;90.30;;;;;;5096399;28;20067;-81
2020/12/15 04:05:07;;;;;;;7.40;3.90;;;8.50;90.40;;;;;;5080475;28;20447;-81
2020/12/15 04:07:32;;;;;;;4.90;3.60;;;8.50;90.40;;;;;;5102248;28;20023;-82
2020/12/15 04:09:58;;;;;;;4.60;3.30;;;8.50;90.40;;;;;;5110040;27;20041;-81
2020/12/15 04:12:23;;;;;;;4.83;3.33;;;8.60;90.40;;;;;;5134594;27;20031;-81
2020/12/15 04:14:49;;;;;;;8.33;3.77;;;8.70;90.40;;;;;;5096190;28;20479;-81
2020/12/15 04:17:15;;;;;;;5.67;3.37;;;8.70;90.20;;;;;;5099990;27;20027;-81
2020/12/15 04:19:40;;;;;;;8.70;3.57;;;8.70;90.10;;;;;;5108843;28;20407;-81
2020/12/15 04:22:06;;;;;;;6.47;3.40;;;8.70;90.20;;;;;;5104694;27;20773;-81
2020/12/15 04:24:32;;;;;;;5.17;3.90;;;8.80;90.10;;;;;;5115476;27;20046;-81
2020/12/15 04:26:58;;;;;;;6.53;3.77;;;8.80;90.10;;;;;;5100438;27;20083;-81
2020/12/15 04:29:24;;;;;;;7.10;3.70;;;8.80;90.00;;;;;;5122286;27;20024;-81
2020/12/15 04:31:50;;;;;;;3.70;3.40;;;8.80;90.00;;;;;;5096597;28;20080;-81
2020/12/15 04:34:16;;;;;;;4.57;3.27;;;8.80;90.00;;;;;;5107765;27;20046;-80
2020/12/15 04:36:41;;;;;;;9.73;3.90;;;8.80;89.90;;;;;;5119748;27;20023;-81
2020/12/15 04:39:07;;;;;;;4.97;3.83;;;8.80;89.90;;;;;;5097180;27;20036;-80
2020/12/15 04:41:32;;;;;;;5.60;3.37;;;8.90;89.90;;;;;;5096225;28;20428;-80
2020/12/15 04:44:02;;;;;;;4.47;3.20;;;8.80;89.90;;;;;;5105031;27;20054;-80
2020/12/15 04:46:30;;;;;;;4.37;3.67;;;8.90;89.90;;;;;;5116099;27;20045;-81
2020/12/15 04:49:07;;;;;;;6.83;3.73;;;8.80;89.80;;;;;;5115729;27;20034;-81
2020/12/15 04:51:39;;;;;;;5.43;4.10;;;8.90;89.90;;;;;;5116280;27;20027;-81
2020/12/15 04:54:10;;;;;;;5.15;4.20;;;8.80;89.90;;;;;;5115786;27;20039;-81
2020/12/15 04:56:42;;;;;;;6.93;3.93;;;8.90;90.00;;;;;;5116085;27;20051;-81
2020/12/15 04:59:11;;;;;;;6.87;4.90;;;8.90;90.00;;;;;;5116400;27;20032;-81
2020/12/15 05:01:38;;;;;;;4.70;3.70;;;8.90;90.00;;;;;;5108478;28;20380;-81
2020/12/15 05:04:05;;;;;;;6.27;4.10;;;8.90;90.00;;;;;;5096523;28;20027;-81
2020/12/15 05:06:36;;;;;;;6.50;4.50;;;9.00;90.10;;;;;;5104640;27;20066;-80
2020/12/15 05:09:03;;;;;;;7.67;4.17;;;9.00;90.10;;;;;;5045615;28;20056;-81
2020/12/15 05:11:28;;;;;;;5.53;3.70;;;9.00;90.00;;;;;;5077738;28;20085;-80
2020/12/15 05:13:55;;;;;;;7.40;4.10;;;9.00;90.00;;;;;;5087601;28;20043;-81
2020/12/15 05:16:20;;;;;;;6.03;4.10;;;9.00;90.00;;;;;;5079602;28;20041;-80
2020/12/15 05:18:46;;;;;;;5.40;4.27;;;9.00;90.00;;;;;;5113712;28;20049;-81
2020/12/15 05:21:18;;;;;;;6.40;4.10;;;9.00;90.00;;;;;;5092480;28;20039;-80
2020/12/15 05:23:46;;;;;;;4.75;4.10;;;9.00;90.00;;;;;;5090723;28;20522;-81
2020/12/15 05:26:20;;;;;;;7.83;4.90;;;9.00;90.00;;;;;;5086790;28;20028;-81
2020/12/15 05:28:46;;;;;;;5.97;4.27;;;9.00;90.00;;;;;;5093977;28;20058;-81
2020/12/15 05:31:14;;;;;;;6.30;4.60;;;9.00;90.00;;;;;;5063441;28;20040;-81
2020/12/15 05:33:40;;;;;;;6.17;4.40;;;9.00;90.10;;;;;;5113778;28;20031;-80
2020/12/15 05:36:17;;;;;;;8.00;5.20;;;9.00;90.10;;;;;;5095681;28;20023;-80
2020/12/15 05:38:43;;;;;;;4.70;4.20;;;9.10;90.10;;;;;;5110608;28;20019;-80
2020/12/15 05:41:13;;;;;;;6.00;4.77;;;9.00;90.10;;;;;;5094496;28;20035;-80
2020/12/15 05:43:39;;;;;;;6.90;4.83;;;9.00;90.10;;;;;;5111263;28;20145;-80
2020/12/15 05:46:06;;;;;;;8.70;5.70;;;9.00;90.10;;;;;;5094692;28;20748;-80
2020/12/15 05:48:33;;;;;;;11.00;5.20;;;9.00;90.10;;;;;;5111480;28;20460;-80
2020/12/15 05:50:58;;;;;;;7.00;5.00;;;9.00;90.20;;;;;;5095012;28;20035;-80
2020/12/15 05:53:24;;;;;;;8.90;5.73;;;9.00;90.30;;;;;;5093285;28;20034;-81
2020/12/15 05:55:50;;;;;;;8.30;5.33;;;9.00;90.30;;;;;;5074227;28;20035;-80
2020/12/15 05:58:16;;;;;;;7.87;5.40;;;9.00;90.30;;;;;;5084669;28;20541;-80
2020/12/15 06:00:42;;;;;;;7.50;5.63;;;9.00;90.30;;;;;;5073946;28;20035;-80
2020/12/15 06:03:08;;;;;;;7.87;5.30;;;8.90;90.40;;;;;;5104603;28;20043;-81
2020/12/15 06:05:37;;;;;;;8.17;6.20;;;8.90;90.40;;;;;;5090509;28;20122;-80
2020/12/15 06:08:05;;;;;;;7.13;5.67;;;9.00;90.50;;;;;;5083163;28;20089;-81
2020/12/15 06:10:32;;;;;;;10.30;6.53;;;9.00;90.60;;;;;;5073890;28;20823;-81
2020/12/15 06:12:59;;;;;;;8.00;5.93;;;8.90;90.60;;;;;;5076230;28;20384;-81
2020/12/15 06:15:26;;;;;;;10.67;7.43;;;8.90;90.70;;;;;;5094969;28;20024;-80
2020/12/15 06:18:00;;;;;;;9.07;5.90;;;9.00;90.80;;;;;;5102555;28;20035;-80
2020/12/15 06:20:34;;;;;;;7.70;5.53;;;9.00;90.80;;;;;;5097142;28;20035;-80
2020/12/15 06:23:01;;;;;;;9.17;6.93;;;9.00;90.90;;;;;;5112713;28;20031;-81
2020/12/15 06:25:28;;;;;;;9.13;7.00;;;9.00;90.90;;;;;;5093792;28;20482;-80
2020/12/15 06:28:04;;;;;;;8.30;6.60;;;9.00;90.90;;;;;;5094117;28;20062;-80
2020/12/15 06:30:38;;;;;;;7.43;6.03;;;9.00;91.00;;;;;;5111871;28;20024;-80
2020/12/15 06:33:06;;;;;;;10.53;6.10;;;9.00;91.00;;;;;;5094324;28;20027;-80
2020/12/15 06:35:33;;;;;;;12.53;6.77;;;9.00;91.00;;;;;;5110360;28;20064;-80
2020/12/15 06:37:59;;;;;;;11.50;6.77;;;9.10;91.10;;;;;;5093741;28;20497;-80
2020/12/15 06:40:25;;;;;;;8.17;6.30;;;9.00;91.10;;;;;;5062868;28;20035;-80
2020/12/15 06:42:54;;;;;;;10.53;7.47;;;9.10;91.10;;;;;;5073833;28;20032;-80
2020/12/15 06:45:22;;;;;;;7.43;6.50;;;9.10;91.20;;;;;;5087856;28;20032;-81
2020/12/15 06:47:56;;;;;;;9.27;7.07;;;9.10;91.20;;;;;;5085015;28;20038;-81
2020/12/15 06:50:21;;;;;;;8.57;6.70;;;9.10;91.30;;;;;;5094746;28;20028;-81
2020/12/15 06:52:47;;;;;;;9.27;6.50;;;9.10;91.30;;;;;;5095444;28;20277;-80
2020/12/15 06:55:13;;;;;;;8.27;7.13;;;9.10;91.30;;;;;;5094439;28;20024;-80
2020/12/15 06:57:39;;;;;;;12.33;7.40;;;9.10;91.40;;;;;;5093039;28;20027;-80
2020/12/15 07:00:10;;;;;;;10.40;6.97;;;9.20;91.40;;;;;;5089306;28;20428;-80
2020/12/15 07:02:36;;;;;;;9.27;6.23;;;9.10;91.40;;;;;;5063485;28;20047;-80
2020/12/15 07:05:16;;;;;;;10.63;7.37;;;9.10;91.50;;;;;;5094484;28;20036;-80
2020/12/15 07:07:50;;;;;;;7.80;7.00;;;9.20;91.50;;;;;;5093609;28;20095;-80
2020/12/15 07:10:17;;;;;;;11.93;8.80;;;9.20;91.50;;;;;;5111277;28;20063;-79
2020/12/15 07:12:46;;;;;;;11.33;8.30;;;9.20;91.50;;;;;;5091094;28;20028;-79
2020/12/15 07:15:12;;;;;;;9.53;7.30;;;9.20;91.60;;;;;;5109297;28;20058;-79
2020/12/15 07:17:45;;;;;;;10.00;7.40;;;9.10;91.60;;;;;;5077915;28;20027;-79
2020/12/15 07:20:12;;;;;;;9.68;7.13;;;9.10;91.60;;;;;;5094805;28;20032;-79
2020/12/15 07:22:37;;;;;;;10.93;7.63;;;9.10;91.70;;;;;;5094327;28;20027;-79
2020/12/15 07:25:04;;;;;;;9.60;8.57;;;9.20;91.70;;;;;;5094585;28;20130;-80
2020/12/15 07:27:32;;;;;;;9.97;8.27;;;9.20;91.70;;;;;;5091273;28;20032;-81
2020/12/15 07:29:58;;;;;;;13.13;7.90;;;9.20;91.80;;;;;;5074196;28;20082;-80
2020/12/15 07:32:25;;;;;;;9.97;7.30;;;9.20;91.80;;;;;;5079587;28;20023;-79
2020/12/15 07:35:00;;;;;;;9.40;7.53;;;9.30;91.80;;;;;;5093534;28;20058;-78
2020/12/15 07:37:27;;;;;;;13.10;7.23;;;9.30;91.80;;;;;;5097800;28;20020;-79
2020/12/15 07:39:54;;;;;;;12.70;7.50;;;9.30;91.80;;;;;;5097567;28;20161;-80
2020/12/15 07:42:20;;;;;;;8.53;7.20;;;9.30;91.80;;;;;;5116459;28;20051;-80
2020/12/15 07:44:45;;;;;;;12.73;7.60;;;9.30;91.80;;;;;;5097039;28;20096;-80
2020/12/15 07:47:11;;;;;;;11.23;7.70;;;9.30;91.80;;;;;;5095721;28;20031;-80
2020/12/15 07:49:38;;;;;;;10.50;7.23;;;9.30;91.80;;;;;;5092829;28;20495;-80
2020/12/15 07:52:04;;;;;;;9.33;6.63;;;9.30;91.80;;;;;;5094210;28;20411;-79
2020/12/15 07:54:29;;;;;;;9.50;6.80;;;9.40;91.80;;;;;;5109313;28;20135;-80
2020/12/15 07:57:00;;;;;;;8.23;6.20;;;9.40;91.80;;;;;;5079001;28;20080;-79
2020/12/15 07:59:26;;;;;;;10.33;5.93;;;9.50;91.80;;;;;;5094350;28;20030;-80
2020/12/15 08:01:51;;;;;;;10.23;6.50;;;9.50;91.70;;;;;;5096329;28;20031;-79
2020/12/15 08:04:18;;;;;;;11.37;7.10;;;9.60;91.70;;;;;;5080740;28;20380;-79
2020/12/15 08:06:45;;;;;;;10.43;7.97;;;9.60;91.60;;;;;;5080775;28;20142;-79
2020/12/15 08:09:13;;;;;;;9.43;6.83;;;9.60;91.50;;;;;;5093630;28;20047;-79
2020/12/15 08:11:44;;;;;;;8.10;6.43;;;9.50;91.50;;;;;;5089039;28;20032;-79
2020/12/15 08:14:12;;;;;;;7.67;5.77;;;9.60;91.60;;;;;;5110783;27;20027;-79
2020/12/15 08:16:38;;;;;;;9.90;7.13;;;9.60;91.60;;;;;;5102388;28;20038;-80
2020/12/15 08:19:04;;;;;;;9.80;6.70;;;9.70;91.50;;;;;;5082864;28;20040;-80
2020/12/15 08:21:38;;;;;;;8.57;5.97;;;9.70;91.50;;;;;;5090568;28;20032;-79
2020/12/15 08:24:09;;;;;;;8.80;6.50;;;9.70;91.50;;;;;;5115728;28;20043;-79
2020/12/15 08:26:35;;;;;;;9.57;7.03;;;9.80;91.40;;;;;;5117636;28;20088;-81
2020/12/15 08:29:10;;;;;;;8.00;5.93;;;9.80;91.30;;;;;;5117749;27;20023;-79
2020/12/15 08:31:41;;;;;;;8.43;5.73;;;9.80;91.30;;;;;;5093709;28;20047;-81
2020/12/15 08:34:14;;;;;;;7.73;6.33;;;9.90;91.20;;;;;;5085302;28;20360;-79
2020/12/15 08:36:46;;;;;;;9.67;7.03;;;9.90;91.10;;;;;;5094190;28;20032;-80
2020/12/15 08:39:13;;;;;;;9.93;6.00;;;9.90;91.10;;;;;;5102861;28;20110;-79
2020/12/15 08:42:09;;;;;;;9.63;6.23;;;9.80;91.00;;;;;;5112473;28;20039;-80
2020/12/15 08:44:35;;;;;;;8.10;6.37;;;9.80;91.00;;;;;;5092082;28;20070;-81
2020/12/15 08:47:01;;;;;;;9.20;7.07;;;9.80;91.00;;;;;;5100507;28;20080;-79
2020/12/15 08:49:27;;;;;;;8.00;7.07;;;9.80;91.10;;;;;;5117437;28;20107;-79
2020/12/15 08:51:54;;;;;;;9.40;7.03;;;9.90;91.20;;;;;;5098411;28;20148;-79
2020/12/15 08:54:20;;;;;;;10.30;7.20;;;10.00;91.20;;;;;;5080948;28;20032;-79
2020/12/15 08:56:47;;;;;;;7.60;6.20;;;10.10;91.10;;;;;;5109323;28;20038;-80
2020/12/15 08:59:20;;;;;;;8.73;6.23;;;10.10;91.00;;;;;;5081494;28;20035;-79
2020/12/15 09:01:46;;;;;;;7.57;5.50;;;10.10;91.00;;;;;;5094007;28;20020;-79
2020/12/15 09:04:23;;;;;;;6.87;5.37;;;10.10;90.80;;;;;;5078214;28;20046;-78
2020/12/15 09:06:49;;;;;;;7.97;5.70;;;10.10;90.80;;;;;;5084743;28;20050;-79
2020/12/15 09:09:14;;;;;;;6.17;5.40;;;10.10;90.80;;;;;;5075324;28;20028;-78
2020/12/15 09:11:40;;;;;;;8.30;5.77;;;10.10;90.80;;;;;;5110065;28;20475;-79
2020/12/15 09:14:06;;;;;;;8.43;4.83;;;10.10;90.80;;;;;;5075854;28;20485;-78
2020/12/15 09:16:34;;;;;;;8.57;5.87;;;10.00;90.70;;;;;;5093461;28;20028;-78
2020/12/15 09:19:18;;;;;;;11.77;7.07;;;10.10;90.80;;;;;;5081439;28;20027;-80
2020/12/15 09:21:54;;;;;;;;;;;10.10;90.90;;;;;;5105419;28;20015;-79
2020/12/15 09:24:20;;;;;;;8.80;6.40;;;10.20;90.80;;;;;;5085305;28;19916;-79
2020/12/15 09:26:45;;;;;;;7.23;5.30;;;10.20;90.80;;;;;;5082686;28;20530;-80
2020/12/15 09:29:11;;;;;;;13.03;9.90;;;10.20;90.80;;;;;;5092848;28;20062;-80
2020/12/15 09:31:42;;;;;;;10.27;6.83;;;10.20;90.80;;;;;;5075822;27;20036;-80
2020/12/15 09:34:07;;;;;;;9.93;7.50;;;10.30;90.80;;;;;;5090227;28;20122;-80
2020/12/15 09:36:34;;;;;;;16.33;9.97;;;10.30;90.70;;;;;;5093164;28;20430;-79
2020/12/15 09:38:59;;;;;;;13.73;9.87;;;10.30;90.90;;;;;;5090220;28;20233;-79
2020/12/15 09:41:25;;;;;;;7.73;5.93;;;10.30;90.80;;;;;;5103499;28;20452;-79
2020/12/15 09:43:51;;;;;;;14.63;8.77;;;10.40;90.80;;;;;;5093506;28;20024;-79
2020/12/15 09:46:17;;;;;;;14.87;8.73;;;10.40;90.70;;;;;;5093310;28;20031;-79
2020/12/15 09:48:43;;;;;;;17.40;9.33;;;10.40;90.70;;;;;;5105590;28;20024;-80
2020/12/15 09:51:12;;;;;;;8.77;6.00;;;10.50;90.70;;;;;;5113507;28;20054;-79
2020/12/15 09:53:38;;;;;;;10.07;6.23;;;10.50;90.50;;;;;;5080301;28;20456;-81
2020/12/15 09:56:03;;;;;;;9.30;6.17;;;10.40;90.40;;;;;;5094618;28;20023;-80
2020/12/15 09:58:30;;;;;;;7.30;4.93;;;10.40;90.40;;;;;;5084586;28;20494;-80
2020/12/15 10:00:55;;;;;;;7.30;4.60;;;10.40;90.40;;;;;;5087984;28;20028;-79
2020/12/15 10:03:21;;;;;;;7.40;5.70;;;10.40;90.40;;;;;;5091941;28;20062;-80
2020/12/15 10:05:48;;;;;;;6.80;4.60;;;10.40;90.50;;;;;;5094298;28;20027;-80
2020/12/15 10:08:14;;;;;;;9.27;6.53;;;10.30;90.50;;;;;;5101161;28;20077;-80
2020/12/15 10:10:40;;;;;;;10.57;8.30;;;10.30;90.50;;;;;;5091500;28;20138;-80
2020/12/15 10:13:06;;;;;;;4.67;4.27;;;10.30;90.70;;;;;;5094560;28;20027;-79
2020/12/15 10:15:33;;;;;;;5.77;4.93;;;10.40;90.60;;;;;;5094630;28;20039;-79
2020/12/15 10:17:59;;;;;;;8.43;5.57;;;10.40;90.70;;;;;;5094825;28;20536;-78
2020/12/15 10:20:26;;;;;;;6.93;5.10;;;10.40;90.70;;;;;;5112094;28;20085;-78
2020/12/15 10:22:52;;;;;;;6.93;4.90;;;10.50;90.60;;;;;;5111603;28;20042;-77
2020/12/15 10:25:19;;;;;;;4.93;4.40;;;10.50;90.50;;;;;;5078287;28;20103;-79
2020/12/15 10:27:45;;;;;;;6.00;4.40;;;10.50;90.50;;;;;;5076278;28;20038;-79
2020/12/15 10:30:11;;;;;;;5.40;4.47;;;10.50;90.50;;;;;;5112719;28;20049;-79
2020/12/15 10:32:36;;;;;;;5.97;4.47;;;10.50;90.50;;;;;;5112705;28;20031;-79
2020/12/15 10:35:03;;;;;;;4.47;3.97;;;10.60;90.50;;;;;;5083309;28;20028;-80
2020/12/15 10:37:28;;;;;;;4.70;4.10;;;10.60;90.40;;;;;;5079255;28;20024;-79
2020/12/15 10:39:54;;;;;;;4.53;3.70;;;10.50;90.40;;;;;;5101504;28;20040;-79
2020/12/15 10:42:20;;;;;;;6.40;4.50;;;10.50;90.50;;;;;;5073981;28;20028;-78
2020/12/15 10:44:46;;;;;;;5.10;3.77;;;10.50;90.40;;;;;;5091980;28;20038;-79
2020/12/15 10:47:12;;;;;;;6.33;4.37;;;10.50;90.50;;;;;;5093719;28;20028;-79
2020/12/15 10:49:38;;;;;;;4.43;3.53;;;10.50;90.50;;;;;;5094743;28;20110;-79
2020/12/15 10:52:04;;;;;;;5.73;4.20;;;10.50;90.50;;;;;;5073950;28;20479;-80
2020/12/15 10:54:30;;;;;;;7.93;5.20;;;10.50;90.50;;;;;;5094494;28;20035;-79
2020/12/15 10:56:56;;;;;;;4.00;3.60;;;10.50;90.60;;;;;;5054710;28;20028;-78
2020/12/15 10:59:21;;;;;;;7.67;5.33;;;10.50;90.60;;;;;;5091920;28;20035;-79
2020/12/15 11:01:53;;;;;;;5.87;4.03;;;10.50;90.60;;;;;;5073886;28;20376;-79
2020/12/15 11:04:19;;;;;;;7.73;5.77;;;10.40;90.50;;;;;;5093073;28;20040;-79
2020/12/15 11:06:46;;;;;;;5.00;4.50;;;10.40;90.60;;;;;;5090937;28;20020;-79
2020/12/15 11:09:13;;;;;;;7.77;6.17;;;10.50;90.60;;;;;;5094026;28;20114;-78
2020/12/15 11:11:38;;;;;;;12.23;9.10;;;10.50;90.70;;;;;;5090440;28;20043;-80
2020/12/15 11:14:04;;;;;;;8.30;6.27;;;10.60;90.80;;;;;;5070985;28;20372;-78
2020/12/15 11:16:30;;;;;;;6.00;4.87;;;10.80;90.70;;;;;;5072580;28;20038;-79
2020/12/15 11:18:55;;;;;;;4.37;3.90;;;10.80;90.60;;;;;;5073659;28;20032;-79
2020/12/15 11:21:21;;;;;;;5.93;4.03;;;10.80;90.40;;;;;;5069835;28;20028;-80
2020/12/15 11:23:47;;;;;;;4.93;3.97;;;10.80;90.40;;;;;;5083117;28;20048;-79
2020/12/15 11:26:16;;;;;;;7.90;4.00;;;10.70;90.30;;;;;;5086152;28;20382;-78
2020/12/15 11:28:43;;;;;;;5.27;4.10;;;10.70;90.40;;;;;;5092353;28;20081;-80
2020/12/15 11:31:10;;;;;;;5.80;4.50;;;10.60;90.40;;;;;;5093729;28;20046;-79
2020/12/15 11:33:36;;;;;;;5.20;4.00;;;10.60;90.40;;;;;;5085040;28;20034;-79
2020/12/15 11:36:01;;;;;;;6.20;4.97;;;10.60;90.40;;;;;;5084220;28;20020;-80
2020/12/15 11:38:27;;;;;;;6.30;4.20;;;10.60;90.50;;;;;;5055921;28;20031;-78
2020/12/15 11:40:53;;;;;;;5.73;4.57;;;10.60;90.50;;;;;;5073313;28;20032;-79
2020/12/15 11:43:18;;;;;;;6.07;4.40;;;10.70;90.60;;;;;;5081006;28;20036;-78
2020/12/15 11:45:44;;;;;;;4.90;3.40;;;10.70;90.50;;;;;;5073763;28;20072;-80
2020/12/15 11:48:09;;;;;;;3.80;3.40;;;10.70;90.40;;;;;;5067153;28;20069;-79
2020/12/15 11:50:35;;;;;;;6.27;4.30;;;10.80;90.50;;;;;;5054889;28;20403;-79
2020/12/15 11:53:01;;;;;;;4.23;3.77;;;10.80;90.50;;;;;;5077283;28;20059;-78
2020/12/15 11:55:27;;;;;;;4.50;3.63;;;10.80;90.30;;;;;;5060052;28;20645;-79
2020/12/15 11:57:54;;;;;;;4.73;3.13;;;10.90;90.30;;;;;;5104169;28;20055;-80
2020/12/15 12:00:20;;;;;;;4.30;3.90;;;10.90;90.30;;;;;;5084866;28;20118;-80
2020/12/15 12:02:46;;;;;;;4.93;3.73;;;10.90;90.40;;;;;;5102306;28;20558;-81
2020/12/15 12:05:15;;;;;;;4.43;3.30;;;10.90;90.30;;;;;;5067541;28;20035;-78
2020/12/15 12:07:41;;;;;;;6.20;3.93;;;10.90;90.20;;;;;;5077275;28;20030;-79
2020/12/15 12:10:07;;;;;;;4.33;3.87;;;10.90;90.20;;;;;;5067603;28;20055;-79
2020/12/15 12:12:32;;;;;;;3.93;2.97;;;10.90;90.30;;;;;;5082981;28;20050;-79
2020/12/15 12:14:58;;;;;;;4.30;2.70;;;10.90;90.30;;;;;;5081900;28;20024;-79
2020/12/15 12:17:24;;;;;;;5.03;3.60;;;11.00;90.20;;;;;;5106347;28;20492;-80
2020/12/15 12:19:50;;;;;;;4.87;4.03;;;10.90;90.20;;;;;;5071798;28;20131;-79
2020/12/15 12:22:16;;;;;;;4.90;3.93;;;11.00;90.40;;;;;;5095555;28;20118;-79
2020/12/15 12:24:41;;;;;;;3.87;3.47;;;11.00;90.20;;;;;;5096748;28;20036;-80
2020/12/15 12:27:08;;;;;;;5.90;3.83;;;11.00;90.20;;;;;;5092056;28;20690;-79
2020/12/15 12:29:34;;;;;;;4.97;3.30;;;11.00;90.20;;;;;;5090138;28;20035;-79
2020/12/15 12:31:59;;;;;;;4.20;3.13;;;11.00;90.20;;;;;;5101801;28;20028;-78
2020/12/15 12:34:25;;;;;;;4.87;2.97;;;11.00;90.20;;;;;;5107643;28;20066;-79
2020/12/15 12:36:51;;;;;;;5.27;3.67;;;11.00;90.10;;;;;;5078621;28;20023;-81
2020/12/15 12:39:16;;;;;;;3.63;2.73;;;11.00;90.20;;;;;;5077912;28;20035;-79
2020/12/15 12:41:42;;;;;;;4.10;3.43;;;11.00;90.10;;;;;;5113334;28;20028;-79
2020/12/15 12:44:08;;;;;;;3.57;3.00;;;11.00;90.20;;;;;;5078681;28;20074;-79
2020/12/15 12:46:33;;;;;;;4.30;3.10;;;11.10;90.20;;;;;;5063302;28;20379;-79
2020/12/15 12:48:59;;;;;;;3.10;2.80;;;11.00;90.20;;;;;;5077653;28;20032;-78
2020/12/15 12:51:28;;;;;;;4.60;2.97;;;11.10;90.20;;;;;;5079752;28;20028;-79